Time;durP1;ratioP1;P1;durP2;ratioP2;P2;SDS_P1;SDS_P2;PMS_P1;PMS_P2;Temp;Humidity;BMP_temperature;BMP_pressure;BME280_temperature;BME280_humidity;BME280_pressure;Samples;Min_cycle;Max_cycle;Signal;HPM_P1;HPM_P2
2023/11/21 00:00:20;;;;;;;1.43;0.90;;;10.70;96.90;;;;;;4954988;29;20257;-63
2023/11/21 00:02:46;;;;;;;0.93;0.57;;;10.60;96.70;;;;;;4954623;29;20169;-63
2023/11/21 00:05:16;;;;;;;0.30;0.30;;;10.30;97.10;;;;;;4954746;28;20679;-63
2023/11/21 00:07:42;;;;;;;0.77;0.77;;;9.60;98.90;;;;;;4938316;29;20420;-63
2023/11/21 00:10:10;;;;;;;0.40;0.40;;;9.90;98.60;;;;;;4954900;29;20188;-63
2023/11/21 00:12:36;;;;;;;2.15;1.52;;;10.00;97.70;;;;;;4954485;29;20633;-62
2023/11/21 00:15:02;;;;;;;0.40;0.40;;;9.90;98.00;;;;;;4955227;28;20958;-63
2023/11/21 00:17:28;;;;;;;0.60;0.60;;;10.00;97.60;;;;;;4954568;29;20174;-63
2023/11/21 00:19:54;;;;;;;0.40;0.40;;;10.10;97.80;;;;;;4954449;29;20205;-63
2023/11/21 00:22:20;;;;;;;0.30;0.30;;;10.30;97.10;;;;;;4954326;29;20548;-63
2023/11/21 00:24:46;;;;;;;0.30;0.30;;;10.40;97.00;;;;;;4954480;28;20190;-62
2023/11/21 00:27:12;;;;;;;0.50;0.50;;;10.30;97.30;;;;;;4954616;29;20415;-63
2023/11/21 00:29:38;;;;;;;0.40;0.40;;;10.30;97.30;;;;;;4937087;29;20691;-63
2023/11/21 00:32:05;;;;;;;1.08;0.50;;;10.40;96.90;;;;;;4954334;29;20640;-63
2023/11/21 00:34:32;;;;;;;0.40;0.40;;;10.40;97.00;;;;;;4953884;28;20284;-63
2023/11/21 00:36:58;;;;;;;8.02;0.77;;;10.00;97.30;;;;;;4954219;29;20177;-63
2023/11/21 00:39:25;;;;;;;0.30;0.30;;;9.90;98.20;;;;;;4937094;29;20216;-63
2023/11/21 00:41:51;;;;;;;0.50;0.40;;;10.00;97.80;;;;;;4954110;29;20237;-63
2023/11/21 00:44:17;;;;;;;0.30;0.30;;;9.90;98.50;;;;;;4953668;28;20217;-63
2023/11/21 00:46:42;;;;;;;0.40;0.30;;;9.90;98.80;;;;;;4953960;29;20424;-62
2023/11/21 00:49:08;;;;;;;0.40;0.40;;;10.20;97.90;;;;;;4954017;29;20226;-63
2023/11/21 00:51:34;;;;;;;0.30;0.30;;;10.10;97.80;;;;;;4954009;29;20173;-63
2023/11/21 00:54:01;;;;;;;1.13;0.97;;;10.00;97.70;;;;;;4936374;29;20201;-63
2023/11/21 00:56:27;;;;;;;0.30;0.30;;;10.20;97.80;;;;;;4953843;28;20483;-63
2023/11/21 00:58:53;;;;;;;3.17;0.50;;;10.40;97.40;;;;;;4953824;29;20292;-63
2023/11/21 01:01:21;;;;;;;0.30;0.30;;;10.40;97.40;;;;;;4953828;29;20182;-63
2023/11/21 01:03:49;;;;;;;0.30;0.30;;;10.30;97.10;;;;;;4953555;28;20200;-63
2023/11/21 01:06:15;;;;;;;0.30;0.30;;;10.40;97.00;;;;;;4953785;29;20169;-62
2023/11/21 01:08:40;;;;;;;0.40;0.40;;;10.40;97.00;;;;;;4953843;28;20233;-62
2023/11/21 01:11:08;;;;;;;0.30;0.30;;;10.70;96.30;;;;;;4953590;29;20196;-62
2023/11/21 01:13:35;;;;;;;0.30;0.30;;;10.70;96.40;;;;;;4953458;28;20661;-63
2023/11/21 01:16:00;;;;;;;0.30;0.30;;;10.80;96.30;;;;;;4953554;29;20177;-62
2023/11/21 01:18:26;;;;;;;0.40;0.40;;;10.80;95.50;;;;;;4953600;29;20213;-63
2023/11/21 01:20:53;;;;;;;0.60;0.60;;;10.50;95.30;;;;;;4953671;29;20169;-63
2023/11/21 01:23:19;;;;;;;0.30;0.30;;;10.50;95.50;;;;;;4935850;28;20180;-63
2023/11/21 01:25:45;;;;;;;0.30;0.30;;;10.40;96.00;;;;;;4953466;29;20204;-62
2023/11/21 01:28:11;;;;;;;0.30;0.30;;;10.20;96.10;;;;;;4953446;29;20177;-63
2023/11/21 01:30:37;;;;;;;0.30;0.30;;;10.30;96.40;;;;;;4953396;29;20205;-62
2023/11/21 01:33:03;;;;;;;0.30;0.30;;;10.40;96.50;;;;;;4953665;28;20174;-63
2023/11/21 01:35:30;;;;;;;0.30;0.30;;;10.50;96.50;;;;;;4953449;29;20181;-63
2023/11/21 01:37:55;;;;;;;0.30;0.30;;;10.70;95.70;;;;;;4953256;29;20196;-63
2023/11/21 01:40:21;;;;;;;0.40;0.40;;;10.70;96.10;;;;;;4953245;29;20234;-63
2023/11/21 01:42:48;;;;;;;0.40;0.40;;;10.80;95.50;;;;;;4953082;29;20177;-62
2023/11/21 01:45:14;;;;;;;0.30;0.30;;;10.50;95.80;;;;;;4953055;28;20213;-62
2023/11/21 01:47:41;;;;;;;0.40;0.40;;;10.10;96.30;;;;;;4953577;29;20182;-62
2023/11/21 01:50:15;;;;;;;0.30;0.30;;;10.30;96.50;;;;;;4953268;29;20217;-63
2023/11/21 01:52:43;;;;;;;0.30;0.30;;;10.20;96.60;;;;;;4952933;29;20173;-63
2023/11/21 01:55:09;;;;;;;0.40;0.40;;;10.20;96.80;;;;;;4953222;28;20194;-63
2023/11/21 01:57:37;;;;;;;0.30;0.30;;;10.10;96.60;;;;;;4953197;29;20173;-62
2023/11/21 02:00:15;;;;;;;0.40;0.40;;;10.10;96.80;;;;;;4953275;28;20263;-63
2023/11/21 02:02:47;;;;;;;0.30;0.30;;;10.30;96.80;;;;;;4932238;29;20660;-63
2023/11/21 02:05:21;;;;;;;0.30;0.30;;;10.50;96.00;;;;;;4940936;29;20241;-63
2023/11/21 02:07:47;;;;;;;0.30;0.30;;;10.50;96.10;;;;;;4953143;29;20185;-63
2023/11/21 02:10:15;;;;;;;0.60;0.60;;;10.60;96.10;;;;;;4953032;29;20169;-62
2023/11/21 02:12:45;;;;;;;0.30;0.30;;;10.50;96.10;;;;;;4952811;29;20425;-63
2023/11/21 02:15:31;;;;;;;0.30;0.30;;;10.60;96.10;;;;;;4935859;29;20689;-63
2023/11/21 02:17:59;;;;;;;0.30;0.30;;;10.50;96.40;;;;;;4953001;29;20249;-63
2023/11/21 02:20:26;;;;;;;0.40;0.40;;;10.60;95.70;;;;;;4953197;28;20173;-62
2023/11/21 02:22:57;;;;;;;0.50;0.47;;;10.60;96.20;;;;;;4938561;29;20188;-63
2023/11/21 02:25:29;;;;;;;0.30;0.30;;;10.50;96.40;;;;;;4956649;28;20687;-63
2023/11/21 02:27:56;;;;;;;0.30;0.30;;;10.60;96.20;;;;;;4956617;29;20173;-63
2023/11/21 02:30:24;;;;;;;0.30;0.30;;;10.50;96.20;;;;;;4956669;29;20261;-63
2023/11/21 02:32:53;;;;;;;0.63;0.63;;;10.30;96.60;;;;;;4956267;29;20221;-62
2023/11/21 02:35:23;;;;;;;0.30;0.30;;;10.20;96.90;;;;;;4956422;28;20197;-63
2023/11/21 02:37:49;;;;;;;0.30;0.30;;;10.10;97.10;;;;;;4956189;29;20169;-62
2023/11/21 02:40:20;;;;;;;0.40;0.40;;;9.80;98.10;;;;;;4956433;29;20185;-63
2023/11/21 02:42:47;;;;;;;7.03;0.65;;;9.90;98.40;;;;;;4956121;29;20257;-63
2023/11/21 02:45:14;;;;;;;0.30;0.30;;;10.10;97.90;;;;;;4956128;28;20269;-63
2023/11/21 02:47:39;;;;;;;1.02;1.02;;;10.00;97.60;;;;;;4956205;29;20185;-63
2023/11/21 02:50:08;;;;;;;0.37;0.37;;;10.30;97.20;;;;;;4956461;29;20530;-62
2023/11/21 02:52:35;;;;;;;0.50;0.50;;;10.50;96.60;;;;;;4956527;29;20205;-63
2023/11/21 02:55:03;;;;;;;0.63;0.63;;;10.60;96.70;;;;;;4938865;29;20208;-62
2023/11/21 02:57:29;;;;;;;0.30;0.30;;;10.70;96.50;;;;;;4956058;29;20174;-62
2023/11/21 02:59:55;;;;;;;0.40;0.40;;;10.60;96.50;;;;;;4955983;29;20757;-63
2023/11/21 03:02:22;;;;;;;0.30;0.30;;;10.70;96.90;;;;;;4955640;29;20409;-63
2023/11/21 03:04:49;;;;;;;0.30;0.30;;;10.60;96.70;;;;;;4956111;28;20205;-63
2023/11/21 03:07:15;;;;;;;0.30;0.30;;;10.40;96.80;;;;;;4955888;29;20174;-63
2023/11/21 03:09:40;;;;;;;0.40;0.40;;;10.40;97.10;;;;;;4955863;29;20173;-63
2023/11/21 03:12:06;;;;;;;0.30;0.30;;;10.40;97.10;;;;;;4955795;29;20533;-63
2023/11/21 03:14:32;;;;;;;0.40;0.40;;;10.20;96.90;;;;;;4955533;28;20194;-63
2023/11/21 03:16:57;;;;;;;0.30;0.30;;;10.10;97.20;;;;;;4955608;29;20173;-62
2023/11/21 03:19:23;;;;;;;0.30;0.30;;;10.10;97.50;;;;;;4955671;29;20571;-62
2023/11/21 03:21:49;;;;;;;0.30;0.30;;;10.10;97.60;;;;;;4953935;29;20561;-63
2023/11/21 03:24:17;;;;;;;0.40;0.40;;;10.30;97.80;;;;;;4955272;28;20202;-62
2023/11/21 03:26:45;;;;;;;0.30;0.30;;;10.40;97.70;;;;;;4938488;29;20220;-63
2023/11/21 03:29:10;;;;;;;0.30;0.30;;;10.40;97.20;;;;;;4955556;29;20185;-63
2023/11/21 03:31:36;;;;;;;0.60;0.60;;;10.40;97.10;;;;;;4955561;29;20808;-62
2023/11/21 03:34:01;;;;;;;0.30;0.30;;;10.10;97.30;;;;;;4955109;28;20197;-63
2023/11/21 03:36:27;;;;;;;0.40;0.40;;;10.10;97.70;;;;;;4955290;29;20181;-63
2023/11/21 03:38:53;;;;;;;0.40;0.40;;;10.10;97.70;;;;;;4955475;29;20197;-63
2023/11/21 03:41:19;;;;;;;0.30;0.30;;;10.10;97.70;;;;;;4955283;29;20199;-62
2023/11/21 03:43:44;;;;;;;1.13;1.13;;;9.90;98.30;;;;;;4955148;28;20691;-62
2023/11/21 03:46:10;;;;;;;0.30;0.30;;;9.90;98.60;;;;;;4957562;29;20173;-62
2023/11/21 03:48:36;;;;;;;0.30;0.30;;;9.90;98.90;;;;;;4957288;29;20545;-62
2023/11/21 03:51:01;;;;;;;0.50;0.40;;;10.00;98.20;;;;;;4957402;29;20177;-62
2023/11/21 03:53:27;;;;;;;0.30;0.30;;;9.80;98.70;;;;;;4956851;28;20193;-62
2023/11/21 03:55:52;;;;;;;0.30;0.30;;;9.70;99.10;;;;;;4939981;29;20182;-62
2023/11/21 03:58:18;;;;;;;0.30;0.30;;;9.70;99.20;;;;;;4957314;29;20200;-63
2023/11/21 04:00:44;;;;;;;0.30;0.30;;;10.00;98.70;;;;;;4957140;29;20174;-62
2023/11/21 04:03:09;;;;;;;0.40;0.40;;;9.90;98.80;;;;;;4956622;28;20173;-62
2023/11/21 04:05:35;;;;;;;0.30;0.30;;;9.90;98.90;;;;;;4957198;29;20249;-62
2023/11/21 04:08:00;;;;;;;0.40;0.40;;;10.00;98.20;;;;;;4957453;29;20174;-62
2023/11/21 04:10:26;;;;;;;0.40;0.40;;;10.20;98.20;;;;;;4958675;29;20166;-61
2023/11/21 04:12:52;;;;;;;0.60;0.60;;;10.40;97.80;;;;;;4957980;29;20237;-62
2023/11/21 04:15:18;;;;;;;0.30;0.30;;;10.50;97.40;;;;;;4959339;28;20272;-62
2023/11/21 04:17:45;;;;;;;0.50;0.50;;;10.50;97.50;;;;;;4959309;29;20589;-61
2023/11/21 04:20:11;;;;;;;0.45;0.45;;;10.60;97.30;;;;;;4959249;29;20288;-62
2023/11/21 04:22:40;;;;;;;0.60;0.60;;;10.80;96.70;;;;;;4958667;29;20414;-61
2023/11/21 04:25:09;;;;;;;0.47;0.47;;;11.00;96.50;;;;;;4958818;28;20433;-61
2023/11/21 04:27:35;;;;;;;0.60;0.60;;;11.10;96.60;;;;;;4958745;29;20648;-62
2023/11/21 04:30:00;;;;;;;1.47;0.40;;;11.00;96.50;;;;;;4958368;29;20165;-61
2023/11/21 04:32:26;;;;;;;0.40;0.40;;;11.00;96.60;;;;;;4957838;29;20181;-61
2023/11/21 04:34:52;;;;;;;0.90;0.60;;;11.10;96.50;;;;;;4958773;28;20218;-62
2023/11/21 04:37:17;;;;;;;0.30;0.30;;;11.20;96.30;;;;;;4958132;29;20213;-62
2023/11/21 04:39:43;;;;;;;0.30;0.30;;;11.10;96.30;;;;;;4958341;29;20280;-61
2023/11/21 04:42:10;;;;;;;0.30;0.30;;;11.20;96.40;;;;;;4957589;29;20174;-61
2023/11/21 04:44:36;;;;;;;0.30;0.30;;;11.30;95.90;;;;;;4956813;28;20492;-61
2023/11/21 04:47:01;;;;;;;0.40;0.40;;;11.30;96.10;;;;;;4957163;28;20178;-62
2023/11/21 04:49:27;;;;;;;0.40;0.40;;;11.20;96.30;;;;;;4957506;28;20182;-62
2023/11/21 04:51:52;;;;;;;0.67;0.67;;;11.10;95.90;;;;;;4957371;29;20178;-62
2023/11/21 04:54:18;;;;;;;0.40;0.40;;;11.10;95.80;;;;;;4957276;28;20197;-61
2023/11/21 04:56:44;;;;;;;0.40;0.40;;;11.00;95.80;;;;;;4957351;29;20224;-62
2023/11/21 04:59:09;;;;;;;0.40;0.40;;;10.90;96.20;;;;;;4957563;29;20201;-62
2023/11/21 05:01:36;;;;;;;0.40;0.40;;;10.80;96.50;;;;;;4957470;29;20165;-62
2023/11/21 05:04:02;;;;;;;1.40;0.57;;;10.80;96.40;;;;;;4956955;28;20715;-62
2023/11/21 05:06:27;;;;;;;0.30;0.30;;;10.80;96.40;;;;;;4957007;29;20286;-62
2023/11/21 05:08:53;;;;;;;0.60;0.60;;;10.90;96.30;;;;;;4956809;29;20962;-62
2023/11/21 05:11:32;;;;;;;0.50;0.50;;;10.80;96.40;;;;;;4948404;29;20194;-62
2023/11/21 05:13:58;;;;;;;0.30;0.30;;;10.90;96.40;;;;;;4930910;29;20230;-62
2023/11/21 05:16:27;;;;;;;0.55;0.50;;;11.00;96.20;;;;;;4945929;29;20264;-62
2023/11/21 05:18:53;;;;;;;0.30;0.30;;;11.00;95.80;;;;;;4946177;29;20201;-62
2023/11/21 05:21:20;;;;;;;0.30;0.30;;;10.80;96.20;;;;;;4947862;29;20178;-62
2023/11/21 05:23:46;;;;;;;0.30;0.30;;;10.90;96.20;;;;;;4946138;28;20198;-62
2023/11/21 05:26:13;;;;;;;0.30;0.30;;;10.90;96.30;;;;;;4947086;29;20185;-62
2023/11/21 05:28:40;;;;;;;0.40;0.40;;;10.90;96.60;;;;;;4947858;29;20307;-62
2023/11/21 05:31:05;;;;;;;0.40;0.40;;;11.00;96.40;;;;;;4946003;29;20186;-62
2023/11/21 05:33:33;;;;;;;0.30;0.30;;;10.90;96.30;;;;;;4948336;28;20268;-62
2023/11/21 05:35:58;;;;;;;0.30;0.30;;;10.80;96.60;;;;;;4956570;29;20548;-62
2023/11/21 05:38:24;;;;;;;0.77;0.77;;;10.90;96.40;;;;;;4956804;29;20212;-62
2023/11/21 05:40:50;;;;;;;0.40;0.40;;;10.80;96.60;;;;;;4956700;29;20181;-62
2023/11/21 05:43:15;;;;;;;0.33;0.30;;;10.80;96.80;;;;;;4956335;28;20180;-62
2023/11/21 05:45:41;;;;;;;0.57;0.57;;;10.80;96.70;;;;;;4956387;29;20183;-62
2023/11/21 05:48:06;;;;;;;0.60;0.60;;;10.60;96.80;;;;;;4964896;28;20260;-61
2023/11/21 05:50:32;;;;;;;0.90;0.40;;;10.60;97.20;;;;;;4975895;28;20175;-62
2023/11/21 05:53:00;;;;;;;0.30;0.30;;;10.60;97.30;;;;;;4975347;28;20195;-62
2023/11/21 05:55:26;;;;;;;0.40;0.40;;;10.80;96.90;;;;;;4975495;28;20199;-62
2023/11/21 05:57:52;;;;;;;0.30;0.30;;;10.90;97.00;;;;;;4979798;28;20200;-62
2023/11/21 06:00:25;;;;;;;0.40;0.40;;;10.90;96.90;;;;;;4958849;29;20532;-62
2023/11/21 06:02:52;;;;;;;0.40;0.40;;;10.90;97.00;;;;;;4973730;28;20219;-62
2023/11/21 06:05:19;;;;;;;0.68;0.68;;;10.90;96.70;;;;;;4979670;28;20192;-62
2023/11/21 06:07:46;;;;;;;0.40;0.40;;;11.00;96.30;;;;;;4974226;28;20669;-62
2023/11/21 06:10:14;;;;;;;0.47;0.47;;;11.00;96.30;;;;;;4949332;29;20190;-62
2023/11/21 06:12:42;;;;;;;0.30;0.30;;;11.00;96.10;;;;;;4949034;29;20534;-62
2023/11/21 06:15:12;;;;;;;3.70;2.28;;;11.00;96.40;;;;;;4949361;28;20197;-62
2023/11/21 06:17:38;;;;;;;0.40;0.40;;;10.90;96.30;;;;;;4932666;29;20188;-62
2023/11/21 06:20:09;;;;;;;0.98;0.98;;;11.00;96.30;;;;;;4948201;29;20711;-62
2023/11/21 06:22:38;;;;;;;1.50;0.73;;;11.00;96.20;;;;;;4950956;28;20174;-62
2023/11/21 06:25:05;;;;;;;1.55;1.05;;;11.20;96.50;;;;;;4976054;28;20205;-62
2023/11/21 06:27:52;;;;;;;0.40;0.40;;;11.30;96.00;;;;;;4956316;28;20173;-62
2023/11/21 06:30:19;;;;;;;0.57;0.57;;;11.40;95.90;;;;;;4949520;28;20273;-61
2023/11/21 06:32:45;;;;;;;0.60;0.60;;;11.30;95.80;;;;;;4955915;29;20597;-62
2023/11/21 06:35:13;;;;;;;0.70;0.70;;;11.20;96.20;;;;;;4958092;28;20212;-61
2023/11/21 06:37:39;;;;;;;0.63;0.63;;;11.00;96.30;;;;;;4945799;29;20188;-62
2023/11/21 06:40:06;;;;;;;0.40;0.40;;;10.90;96.60;;;;;;4972394;28;20212;-63
2023/11/21 06:42:33;;;;;;;0.30;0.30;;;10.80;96.70;;;;;;4961793;28;20666;-62
2023/11/21 06:44:58;;;;;;;0.50;0.50;;;10.10;99.90;;;;;;4977770;28;20224;-62
2023/11/21 06:47:25;;;;;;;0.40;0.40;;;9.40;99.90;;;;;;4949235;29;20178;-62
2023/11/21 06:49:52;;;;;;;0.40;0.40;;;9.00;99.90;;;;;;4940755;29;20241;-62
2023/11/21 06:52:18;;;;;;;0.60;0.60;;;8.80;99.90;;;;;;4940644;29;20182;-62
2023/11/21 06:54:45;;;;;;;0.40;0.40;;;8.70;99.90;;;;;;4941415;29;20226;-62
2023/11/21 06:57:11;;;;;;;1.77;0.98;;;8.50;99.90;;;;;;4908187;29;20649;-62
2023/11/21 06:59:37;;;;;;;0.50;0.50;;;8.30;99.90;;;;;;4951474;28;20296;-62
2023/11/21 07:02:02;;;;;;;0.50;0.50;;;8.20;99.90;;;;;;4976666;28;20204;-62
2023/11/21 07:04:28;;;;;;;0.30;0.30;;;8.20;99.90;;;;;;4978861;28;20193;-62
2023/11/21 07:06:54;;;;;;;0.43;0.43;;;8.20;99.90;;;;;;4979083;28;20405;-62
2023/11/21 07:09:23;;;;;;;0.40;0.40;;;8.20;99.90;;;;;;4978835;28;20165;-62
2023/11/21 07:11:49;;;;;;;0.90;0.90;;;8.30;99.90;;;;;;4978612;28;20940;-61
2023/11/21 07:14:16;;;;;;;0.40;0.40;;;8.30;99.90;;;;;;4979076;28;20201;-62
2023/11/21 07:16:42;;;;;;;0.30;0.30;;;8.30;99.90;;;;;;4979697;28;20200;-61
2023/11/21 07:19:08;;;;;;;0.30;0.30;;;8.30;99.90;;;;;;4967122;28;20220;-62
2023/11/21 07:21:36;;;;;;;0.30;0.30;;;8.20;99.90;;;;;;4958196;29;20472;-61
2023/11/21 07:24:02;;;;;;;0.30;0.30;;;8.20;99.90;;;;;;4960392;29;20287;-62
2023/11/21 07:26:29;;;;;;;0.30;0.30;;;8.20;99.90;;;;;;4959510;29;20200;-63
2023/11/21 07:28:55;;;;;;;0.30;0.30;;;8.20;99.90;;;;;;4954899;28;20178;-63
2023/11/21 07:31:22;;;;;;;0.30;0.30;;;8.10;99.90;;;;;;4975773;28;20189;-62
2023/11/21 07:33:48;;;;;;;0.30;0.30;;;8.00;99.90;;;;;;4977413;28;20222;-63
2023/11/21 07:36:15;;;;;;;0.30;0.30;;;8.20;99.90;;;;;;4978339;28;20725;-62
2023/11/21 07:38:43;;;;;;;0.30;0.30;;;8.00;99.90;;;;;;4967801;28;20449;-62
2023/11/21 07:41:10;;;;;;;0.30;0.30;;;8.00;99.90;;;;;;4957927;29;20231;-64
2023/11/21 07:43:36;;;;;;;0.47;0.47;;;8.00;99.90;;;;;;4957907;28;20210;-63
2023/11/21 07:46:04;;;;;;;0.40;0.40;;;8.10;99.90;;;;;;4958984;29;20799;-62
2023/11/21 07:48:31;;;;;;;0.75;0.50;;;8.20;99.90;;;;;;4958523;29;20192;-63
2023/11/21 07:51:00;;;;;;;0.40;0.40;;;8.40;99.90;;;;;;4958333;29;20196;-63
2023/11/21 07:53:28;;;;;;;0.40;0.40;;;8.50;99.90;;;;;;4939739;29;20542;-63
2023/11/21 07:55:54;;;;;;;0.30;0.30;;;8.50;99.90;;;;;;4958662;29;20187;-63
2023/11/21 07:58:20;;;;;;;0.70;0.55;;;8.70;99.90;;;;;;4937704;29;20246;-62
2023/11/21 08:00:46;;;;;;;0.60;0.60;;;8.80;99.90;;;;;;4947221;29;20179;-62
2023/11/21 08:03:13;;;;;;;0.77;0.77;;;8.90;99.90;;;;;;4947942;29;20189;-62
2023/11/21 08:05:39;;;;;;;0.82;0.82;;;9.20;99.90;;;;;;4945389;29;20178;-63
2023/11/21 08:08:05;;;;;;;0.47;0.47;;;9.40;99.90;;;;;;4947489;29;20640;-63
2023/11/21 08:10:30;;;;;;;0.40;0.40;;;9.50;99.90;;;;;;4945266;29;20171;-62
2023/11/21 08:12:56;;;;;;;0.57;0.57;;;9.70;99.90;;;;;;4948754;29;20670;-62
2023/11/21 08:15:23;;;;;;;0.50;0.50;;;9.60;99.90;;;;;;4949218;28;20242;-62
2023/11/21 08:17:49;;;;;;;0.50;0.50;;;9.70;99.90;;;;;;4947348;29;20261;-61
2023/11/21 08:20:16;;;;;;;0.40;0.40;;;9.90;99.90;;;;;;4941798;29;20995;-62
2023/11/21 08:22:42;;;;;;;0.40;0.40;;;10.40;99.90;;;;;;4955928;29;20428;-62
2023/11/21 08:25:08;;;;;;;0.67;0.67;;;11.60;99.90;;;;;;4937592;29;20434;-63
2023/11/21 08:27:34;;;;;;;0.60;0.50;;;12.00;99.70;;;;;;4957489;29;20414;-62
2023/11/21 08:30:02;;;;;;;0.50;0.50;;;11.90;97.90;;;;;;4930861;29;20430;-62
2023/11/21 08:32:30;;;;;;;0.30;0.30;;;11.70;98.90;;;;;;4948758;29;20545;-62
2023/11/21 08:34:56;;;;;;;0.93;0.93;;;11.40;99.00;;;;;;4948570;28;20437;-63
2023/11/21 08:37:21;;;;;;;0.30;0.30;;;11.10;99.20;;;;;;4946903;29;20413;-63
2023/11/21 08:39:48;;;;;;;0.40;0.40;;;10.90;99.90;;;;;;4946479;29;20699;-63
2023/11/21 08:42:14;;;;;;;1.17;1.17;;;10.60;99.90;;;;;;4946950;29;20659;-62
2023/11/21 08:44:40;;;;;;;0.40;0.40;;;10.40;99.90;;;;;;4947539;29;20509;-62
2023/11/21 08:47:06;;;;;;;0.50;0.50;;;10.30;99.90;;;;;;4946587;29;20501;-62
2023/11/21 08:49:32;;;;;;;0.90;0.40;;;10.20;99.90;;;;;;4950038;29;20444;-62
2023/11/21 08:51:59;;;;;;;0.30;0.30;;;10.10;99.90;;;;;;4957691;29;20456;-63
2023/11/21 08:54:26;;;;;;;0.50;0.50;;;10.00;99.90;;;;;;4957139;28;20524;-62
2023/11/21 08:56:54;;;;;;;1.58;0.50;;;9.70;99.90;;;;;;4956644;29;20664;-62
2023/11/21 08:59:20;;;;;;;0.50;0.50;;;9.60;99.90;;;;;;4953973;29;20209;-62
2023/11/21 09:01:47;;;;;;;0.88;0.47;;;9.40;99.90;;;;;;4957094;29;20240;-63
2023/11/21 09:04:13;;;;;;;0.40;0.40;;;9.40;99.90;;;;;;4956176;28;20758;-62
2023/11/21 09:06:42;;;;;;;0.30;0.30;;;9.40;99.90;;;;;;4956441;29;20484;-62
2023/11/21 09:09:10;;;;;;;0.33;0.33;;;9.40;99.90;;;;;;4956287;29;20216;-62
2023/11/21 09:11:35;;;;;;;0.30;0.30;;;9.40;99.90;;;;;;4939999;29;20517;-62
2023/11/21 09:14:01;;;;;;;0.40;0.40;;;9.60;99.90;;;;;;4956420;28;20233;-62
2023/11/21 09:16:27;;;;;;;0.50;0.50;;;9.70;99.90;;;;;;4954257;28;20812;-62
2023/11/21 09:18:53;;;;;;;0.47;0.47;;;9.80;99.90;;;;;;4947670;28;20471;-62
2023/11/21 09:21:18;;;;;;;0.30;0.30;;;9.90;99.90;;;;;;4947162;29;20204;-62
2023/11/21 09:23:44;;;;;;;0.30;0.30;;;9.90;99.90;;;;;;4956230;28;20290;-62
2023/11/21 09:26:10;;;;;;;0.30;0.30;;;9.90;99.90;;;;;;4954913;28;20612;-62
2023/11/21 09:28:38;;;;;;;0.40;0.40;;;10.00;99.90;;;;;;4958044;28;20204;-62
2023/11/21 09:31:09;;;;;;;0.50;0.47;;;10.10;99.90;;;;;;4970395;28;20391;-62
2023/11/21 09:33:35;;;;;;;0.40;0.40;;;10.10;99.90;;;;;;4952860;28;20551;-62
2023/11/21 09:36:04;;;;;;;1.50;0.70;;;10.30;99.90;;;;;;4955946;28;20436;-62
2023/11/21 09:38:30;;;;;;;0.30;0.30;;;10.40;99.90;;;;;;4956828;29;20463;-62
2023/11/21 09:40:58;;;;;;;0.60;0.60;;;10.40;99.90;;;;;;4957303;29;20782;-62
2023/11/21 09:43:27;;;;;;;0.40;0.40;;;10.40;99.90;;;;;;4938904;28;21050;-62
2023/11/21 09:46:01;;;;;;;0.90;0.63;;;10.50;99.90;;;;;;4939568;29;20789;-62
2023/11/21 09:48:29;;;;;;;0.57;0.57;;;10.50;99.90;;;;;;4957612;29;20466;-62
2023/11/21 09:50:56;;;;;;;0.50;0.50;;;10.50;99.90;;;;;;4953087;28;20440;-61
2023/11/21 09:53:24;;;;;;;0.40;0.40;;;10.40;99.90;;;;;;4973493;28;20854;-62
2023/11/21 09:55:52;;;;;;;0.40;0.40;;;10.40;99.90;;;;;;4956366;28;20432;-62
2023/11/21 09:58:19;;;;;;;0.50;0.50;;;10.40;99.90;;;;;;4961474;28;20519;-62
2023/11/21 10:00:46;;;;;;;1.50;1.00;;;10.40;99.90;;;;;;4976983;28;20812;-61
2023/11/21 10:03:13;;;;;;;0.70;0.40;;;10.50;99.90;;;;;;4976852;28;20431;-62
2023/11/21 10:05:41;;;;;;;0.40;0.40;;;10.60;99.90;;;;;;4976481;28;20408;-62
2023/11/21 10:08:11;;;;;;;0.43;0.43;;;10.60;99.90;;;;;;4961224;28;20923;-62
2023/11/21 10:10:38;;;;;;;0.50;0.50;;;10.60;99.90;;;;;;4956908;29;20409;-62
2023/11/21 10:13:06;;;;;;;0.60;0.40;;;10.70;99.90;;;;;;4957348;28;20409;-62
2023/11/21 10:15:34;;;;;;;1.00;0.60;;;10.80;99.90;;;;;;4956583;29;20420;-62
2023/11/21 10:18:06;;;;;;;0.40;0.40;;;10.60;99.90;;;;;;4957709;29;20244;-62
2023/11/21 10:20:33;;;;;;;1.13;0.70;;;10.40;99.90;;;;;;4957019;29;20802;-62
2023/11/21 10:23:03;;;;;;;0.50;0.50;;;10.10;99.90;;;;;;4957751;29;20413;-62
2023/11/21 10:25:29;;;;;;;0.43;0.40;;;10.00;99.90;;;;;;4974692;28;20243;-61
2023/11/21 10:28:05;;;;;;;0.30;0.30;;;10.00;99.90;;;;;;4976644;28;20488;-62
2023/11/21 10:30:36;;;;;;;0.40;0.40;;;10.00;99.90;;;;;;4977489;28;20187;-62
2023/11/21 10:33:03;;;;;;;0.30;0.30;;;9.90;99.90;;;;;;4977169;28;20228;-62
2023/11/21 10:35:50;;;;;;;8.07;1.35;;;9.90;99.90;;;;;;4976578;28;20180;-61
2023/11/21 10:38:18;;;;;;;0.40;0.40;;;10.00;99.90;;;;;;4977143;28;20544;-62
2023/11/21 10:40:50;;;;;;;0.50;0.50;;;10.10;99.90;;;;;;4976612;28;20181;-62
2023/11/21 10:43:18;;;;;;;0.40;0.40;;;10.10;99.90;;;;;;4978610;28;20268;-61
2023/11/21 10:45:44;;;;;;;1.70;0.50;;;10.20;99.90;;;;;;4980763;28;20180;-62
2023/11/21 10:48:15;;;;;;;0.40;0.40;;;10.10;99.90;;;;;;4979937;28;20177;-62
2023/11/21 10:50:41;;;;;;;0.30;0.30;;;10.00;99.90;;;;;;4976450;28;20415;-63
2023/11/21 10:53:07;;;;;;;0.40;0.40;;;10.00;99.90;;;;;;4971701;28;20203;-61
2023/11/21 10:55:34;;;;;;;0.70;0.50;;;9.90;99.90;;;;;;4965399;28;20181;-60
2023/11/21 10:58:03;;;;;;;0.40;0.40;;;9.80;99.90;;;;;;4957989;28;20425;-61
2023/11/21 11:00:29;;;;;;;0.30;0.30;;;9.80;99.90;;;;;;4952939;29;20212;-60
2023/11/21 11:02:56;;;;;;;0.40;0.40;;;9.90;99.90;;;;;;4975660;28;20183;-60
2023/11/21 11:05:25;;;;;;;0.40;0.40;;;9.80;99.90;;;;;;4978543;28;20196;-60
2023/11/21 11:08:05;;;;;;;0.30;0.30;;;9.80;99.90;;;;;;4980276;28;20200;-60
2023/11/21 11:10:31;;;;;;;0.30;0.30;;;10.00;99.90;;;;;;4975864;28;20594;-60
2023/11/21 11:12:58;;;;;;;0.30;0.30;;;10.00;99.90;;;;;;4961780;29;20548;-60
2023/11/21 11:15:26;;;;;;;0.37;0.37;;;10.10;99.90;;;;;;4961643;28;20442;-60
2023/11/21 11:17:56;;;;;;;0.30;0.30;;;10.10;99.90;;;;;;4961966;29;20466;-60
2023/11/21 11:20:30;;;;;;;0.30;0.30;;;10.10;99.90;;;;;;4962658;29;21006;-60
2023/11/21 11:23:02;;;;;;;0.30;0.30;;;10.00;99.90;;;;;;4962143;29;20424;-60
2023/11/21 11:25:58;;;;;;;0.52;0.52;;;10.00;99.90;;;;;;4961695;29;20446;-60
2023/11/21 11:28:44;;;;;;;0.40;0.40;;;10.10;99.90;;;;;;4948391;29;20178;-60
2023/11/21 11:31:34;;;;;;;0.40;0.40;;;10.10;99.90;;;;;;4942998;29;20453;-60
2023/11/21 11:34:13;;;;;;;0.30;0.30;;;10.10;99.90;;;;;;4943202;29;20462;-60
2023/11/21 11:37:07;;;;;;;0.40;0.40;;;10.10;99.90;;;;;;4944061;29;20181;-61
2023/11/21 11:39:43;;;;;;;0.40;0.40;;;10.10;99.90;;;;;;4942710;29;20454;-60
2023/11/21 11:42:16;;;;;;;0.40;0.40;;;10.20;99.90;;;;;;4942259;29;20398;-60
2023/11/21 11:44:46;;;;;;;0.60;0.60;;;10.30;99.90;;;;;;4940923;29;20528;-60
2023/11/21 11:47:20;;;;;;;0.70;0.50;;;10.20;99.90;;;;;;4942735;29;20841;-60
2023/11/21 11:50:03;;;;;;;0.97;0.50;;;10.20;99.90;;;;;;4942529;29;20424;-60
2023/11/21 11:52:35;;;;;;;1.03;0.83;;;10.20;99.90;;;;;;4942041;29;20406;-60
2023/11/21 11:55:04;;;;;;;0.40;0.40;;;10.50;99.90;;;;;;4939647;29;20437;-60
2023/11/21 11:57:32;;;;;;;0.50;0.50;;;10.50;99.90;;;;;;4941613;29;20449;-60
2023/11/21 12:00:48;;;;;;;0.83;0.40;;;10.50;99.90;;;;;;4945547;29;20475;-62
2023/11/21 12:03:08;;;;;;;0.40;0.40;;;10.60;99.90;;;;;;4958565;28;20425;-60
2023/11/21 12:05:38;;;;;;;0.40;0.40;;;10.50;99.90;;;;;;4961786;29;20899;-60
2023/11/21 12:08:06;;;;;;;0.40;0.40;;;10.70;99.90;;;;;;4961598;29;20420;-60
2023/11/21 12:10:34;;;;;;;0.40;0.40;;;10.80;99.90;;;;;;4943830;29;20427;-60
2023/11/21 12:13:07;;;;;;;0.57;0.57;;;10.90;99.90;;;;;;4961292;29;20413;-60
2023/11/21 12:15:36;;;;;;;0.40;0.40;;;10.90;99.90;;;;;;4960977;29;20413;-60
2023/11/21 12:18:03;;;;;;;0.30;0.30;;;11.00;99.90;;;;;;4958824;29;20472;-60
2023/11/21 12:20:31;;;;;;;0.50;0.50;;;10.90;99.90;;;;;;4960655;29;20465;-60
2023/11/21 12:23:00;;;;;;;0.30;0.30;;;10.90;99.90;;;;;;4960896;28;20411;-60
2023/11/21 12:25:31;;;;;;;0.30;0.30;;;10.90;99.90;;;;;;4962553;28;20463;-60
2023/11/21 12:27:59;;;;;;;0.30;0.30;;;10.70;99.90;;;;;;4962798;29;20884;-60
2023/11/21 12:30:30;;;;;;;0.30;0.30;;;10.70;99.90;;;;;;4945990;29;20425;-60
2023/11/21 12:32:58;;;;;;;1.60;0.50;;;10.60;99.90;;;;;;4961203;29;20188;-61
2023/11/21 12:35:37;;;;;;;0.30;0.30;;;10.40;99.90;;;;;;4945488;29;20201;-60
2023/11/21 12:38:04;;;;;;;0.30;0.30;;;10.40;99.90;;;;;;4963029;29;20174;-60
2023/11/21 12:40:30;;;;;;;0.50;0.40;;;10.40;99.90;;;;;;4961930;29;20679;-60
2023/11/21 12:42:58;;;;;;;0.30;0.30;;;10.30;99.90;;;;;;4960538;29;20184;-60
2023/11/21 12:45:27;;;;;;;0.40;0.40;;;10.20;99.90;;;;;;4962220;28;20596;-61
2023/11/21 12:48:07;;;;;;;0.30;0.30;;;10.10;99.90;;;;;;4962043;29;20180;-60
2023/11/21 12:50:34;;;;;;;2.25;1.05;;;10.20;99.90;;;;;;4962210;29;20189;-60
2023/11/21 12:53:05;;;;;;;0.30;0.30;;;10.30;99.90;;;;;;4961032;29;20188;-60